createdAt,value
2019-05-26T00:02:08.727Z,0
2019-05-26T00:07:08.592Z,0
2019-05-26T00:12:09.242Z,0
2019-05-26T00:17:08.751Z,0
2019-05-26T00:22:09.228Z,0
2019-05-26T00:27:08.699Z,0
2019-05-26T00:32:09.199Z,0
2019-05-26T00:37:08.806Z,0
2019-05-26T00:42:09.355Z,0
2019-05-26T00:47:08.924Z,0
2019-05-26T00:52:08.454Z,0
2019-05-26T00:57:08.698Z,0
2019-05-26T01:02:08.336Z,0
2019-05-26T01:07:09.248Z,0
2019-05-26T01:12:08.954Z,0
2019-05-26T01:17:08.315Z,0.4
2019-05-26T01:22:08.764Z,0.4
2019-05-26T01:27:08.371Z,0
2019-05-26T01:32:08.417Z,0
2019-05-26T01:37:09.282Z,0.4
2019-05-26T01:42:08.734Z,0.4
2019-05-26T01:47:09.428Z,0.4
2019-05-26T01:52:09.405Z,0.4
2019-05-26T01:57:09.019Z,0.1
2019-05-26T02:02:09.103Z,0.1
2019-05-26T02:07:08.700Z,0
2019-05-26T02:12:09.089Z,0
2019-05-26T02:17:08.666Z,0.4
2019-05-26T02:22:08.661Z,0.4
2019-05-26T02:27:09.222Z,0.4
2019-05-26T02:32:08.745Z,0.4
2019-05-26T02:37:09.548Z,0.9
2019-05-26T02:42:09.205Z,0.9
2019-05-26T02:47:08.662Z,0.9
2019-05-26T02:52:09.167Z,0.9
2019-05-26T02:57:08.716Z,0.4
2019-05-26T03:02:09.284Z,0.4
2019-05-26T03:07:08.897Z,0.4
2019-05-26T03:12:09.052Z,0.4
2019-05-26T03:17:08.525Z,0.4
2019-05-26T03:22:08.970Z,0.4
2019-05-26T03:27:09.588Z,0
2019-05-26T03:32:09.054Z,0
2019-05-26T03:37:09.244Z,0.4
2019-05-26T03:42:08.732Z,0.4
2019-05-26T03:47:09.451Z,0
2019-05-26T03:52:09.041Z,0
2019-05-26T03:57:09.297Z,0.4
2019-05-26T04:02:08.880Z,0.4
2019-05-26T04:07:09.498Z,0.4
2019-05-26T04:12:08.596Z,0.4
2019-05-26T04:17:09.062Z,0.4
2019-05-26T04:22:08.700Z,0.4
2019-05-26T04:27:09.384Z,0.9
2019-05-26T04:32:09.083Z,0.9
2019-05-26T04:37:08.549Z,0.9
2019-05-26T04:42:08.795Z,0.9
2019-05-26T04:47:09.457Z,0.9
2019-05-26T04:52:08.961Z,0.9
2019-05-26T04:57:09.471Z,0.9
2019-05-26T05:02:08.887Z,0.9
2019-05-26T05:07:09.488Z,1.3
2019-05-26T05:12:08.814Z,1.3
2019-05-26T05:17:09.303Z,0.9
2019-05-26T05:22:08.675Z,0.9
2019-05-26T05:27:09.387Z,0.9
2019-05-26T05:32:08.822Z,0.9
2019-05-26T05:37:09.310Z,1.3
2019-05-26T05:42:08.737Z,1.3
2019-05-26T05:47:09.218Z,1.3
2019-05-26T05:52:09.617Z,1.3
2019-05-26T05:57:09.094Z,1.3
2019-05-26T06:02:09.432Z,1.3
2019-05-26T06:07:08.969Z,1.8
2019-05-26T06:12:09.482Z,1.8
2019-05-26T06:17:10.523Z,1.8
2019-05-26T06:22:09.129Z,1.8
2019-05-26T06:27:09.581Z,1.8
2019-05-26T06:32:09.311Z,1.8
2019-05-26T06:37:09.177Z,2.2
2019-05-26T06:42:12.948Z,2.2
2019-05-26T06:47:08.960Z,2.2
2019-05-26T06:52:09.396Z,2.2
2019-05-26T06:57:08.887Z,2.2
2019-05-26T07:02:09.367Z,2.2
2019-05-26T07:07:08.958Z,1.8
2019-05-26T07:12:09.749Z,1.8
2019-05-26T07:17:09.191Z,1.9
2019-05-26T07:22:09.720Z,1.9
2019-05-26T07:27:09.378Z,2.2
2019-05-26T07:32:08.862Z,2.2
2019-05-26T07:37:09.506Z,2.1
2019-05-26T07:42:10.442Z,2.1
2019-05-26T07:47:09.650Z,1.9
2019-05-26T07:52:08.985Z,1.9
2019-05-26T07:57:09.482Z,2.7
2019-05-26T08:02:08.975Z,2.7
2019-05-26T08:07:09.498Z,3.6
2019-05-26T08:12:23.088Z,3.6
2019-05-26T08:17:09.624Z,3.8
2019-05-26T08:22:09.133Z,3.8
2019-05-26T08:27:09.047Z,3.2
2019-05-26T08:32:09.539Z,3.2
2019-05-26T08:37:09.107Z,3.6
2019-05-26T08:42:09.536Z,3.6
2019-05-26T08:47:08.989Z,2.7
2019-05-26T08:52:09.424Z,2.7
2019-05-26T08:57:08.866Z,2.5
2019-05-26T09:02:09.384Z,2.5
2019-05-26T09:07:09.118Z,3.1
2019-05-26T09:12:09.470Z,3.1
2019-05-26T09:17:08.920Z,3.1
2019-05-26T09:22:09.291Z,3.1
2019-05-26T09:27:09.702Z,2.6
2019-05-26T09:32:09.200Z,2.6
2019-05-26T09:37:09.303Z,2
2019-05-26T09:42:09.087Z,2
2019-05-26T09:47:09.461Z,3.6
2019-05-26T09:52:09.111Z,3.6
2019-05-26T09:57:09.673Z,2.6
2019-05-26T10:02:09.529Z,2.6
2019-05-26T10:07:13.330Z,3.6
2019-05-26T10:12:09.449Z,3.6
2019-05-26T10:17:09.136Z,3.1
2019-05-26T10:22:09.636Z,3.1
2019-05-26T10:27:09.109Z,2.7
2019-05-26T10:32:09.753Z,2.7
2019-05-26T10:37:09.670Z,3.1
2019-05-26T10:42:09.157Z,3.1
2019-05-26T10:47:09.464Z,3.2
2019-05-26T10:52:10.013Z,3.2
2019-05-26T10:57:09.534Z,3
2019-05-26T11:02:09.064Z,3
2019-05-26T11:07:09.741Z,3.1
2019-05-26T11:12:09.801Z,3.1
2019-05-26T11:17:09.386Z,2.9
2019-05-26T11:22:09.818Z,2.9
2019-05-26T11:27:12.639Z,2.7
2019-05-26T11:32:09.952Z,2.7
2019-05-26T11:37:09.431Z,2.7
2019-05-26T11:42:13.371Z,2.7
2019-05-26T11:47:09.385Z,2.9
2019-05-26T11:52:09.792Z,2.9
2019-05-26T11:57:09.344Z,2.2
2019-05-26T12:02:09.791Z,2.2
2019-05-26T12:07:09.569Z,1.7
2019-05-26T12:12:09.275Z,1.7
2019-05-26T12:17:09.440Z,1.8
2019-05-26T12:22:10.033Z,1.8
2019-05-26T12:27:09.596Z,1.3
2019-05-26T12:32:09.308Z,1.3
2019-05-26T12:37:09.919Z,1.3
2019-05-26T12:42:09.342Z,1.3
2019-05-26T12:47:09.730Z,1.6
2019-05-26T12:52:09.243Z,1.6
2019-05-26T12:57:09.667Z,2.4
2019-05-26T13:02:09.144Z,2.4
2019-05-26T13:07:09.674Z,2.2
2019-05-26T13:12:09.549Z,2.2
2019-05-26T13:17:10.142Z,2.2
2019-05-26T13:22:09.591Z,2.2
2019-05-26T13:27:10.075Z,2.2
2019-05-26T13:32:09.485Z,2.2
2019-05-26T13:37:09.981Z,3.4
2019-05-26T13:42:09.474Z,3.4
2019-05-26T13:47:09.932Z,3.3
2019-05-26T13:52:09.351Z,3.3
2019-05-26T13:57:09.779Z,2.9
2019-05-26T14:02:09.327Z,2.9
2019-05-26T14:07:09.957Z,3.1
2019-05-26T14:12:09.652Z,3.1
2019-05-26T14:17:09.500Z,2.7
2019-05-26T14:22:10.012Z,2.7
2019-05-26T14:27:09.613Z,2.7
2019-05-26T14:32:10.051Z,2.7
2019-05-26T14:37:10.307Z,3.1
2019-05-26T14:42:09.794Z,3.1
2019-05-26T14:47:09.319Z,3.1
2019-05-26T14:52:09.771Z,3.1
2019-05-26T14:57:09.297Z,2
2019-05-26T15:02:09.728Z,2
2019-05-26T15:07:09.404Z,2.7
2019-05-26T15:12:09.783Z,2.7
2019-05-26T15:17:09.752Z,2.2
2019-05-26T15:22:10.179Z,2.2
2019-05-26T15:27:09.788Z,3.1
2019-05-26T15:32:09.477Z,3.1
2019-05-26T15:37:09.513Z,3
2019-05-26T15:42:09.473Z,3
2019-05-26T15:47:09.404Z,3.2
2019-05-26T15:52:09.440Z,3.2
2019-05-26T15:57:09.851Z,4.2
2019-05-26T16:02:10.057Z,4.2
2019-05-26T16:07:09.966Z,2.7
2019-05-26T16:12:09.437Z,2.7
2019-05-26T16:17:09.725Z,2.2
2019-05-26T16:22:09.549Z,2.2
2019-05-26T16:27:19.119Z,2.2
2019-05-26T16:32:10.002Z,2.2
2019-05-26T16:37:10.110Z,1.8
2019-05-26T16:42:09.621Z,1.8
2019-05-26T16:47:09.667Z,1.8
2019-05-26T16:52:10.123Z,1.8
2019-05-26T16:57:09.709Z,2
2019-05-26T17:02:10.176Z,2
2019-05-26T17:07:09.752Z,1.8
2019-05-26T17:12:10.416Z,1.8
2019-05-26T17:17:14.844Z,1.8
2019-05-26T17:22:09.937Z,1.8
2019-05-26T17:27:09.592Z,2.2
2019-05-26T17:32:09.969Z,2.2
2019-05-26T17:37:09.641Z,4.1
2019-05-26T17:42:10.053Z,4.1
2019-05-26T17:47:09.720Z,4
2019-05-26T17:52:10.103Z,4
2019-05-26T17:57:09.654Z,2.4
2019-05-26T18:02:10.172Z,2.4
2019-05-26T18:07:09.940Z,2.5
2019-05-26T18:12:10.388Z,2.5
2019-05-26T18:17:10.499Z,4
2019-05-26T18:22:10.189Z,4
2019-05-26T18:27:09.687Z,3.6
2019-05-26T18:32:10.277Z,3.6
2019-05-26T18:37:09.933Z,3.6
2019-05-26T18:42:10.399Z,3.6
2019-05-26T18:47:09.860Z,3.1
2019-05-26T18:52:10.263Z,3.1
2019-05-26T18:57:09.925Z,2.6
2019-05-26T19:02:10.207Z,2.6
2019-05-26T19:07:09.955Z,2.5
2019-05-26T19:12:09.662Z,2.5
2019-05-26T19:17:10.362Z,4.3
2019-05-26T19:22:09.880Z,4.3
2019-05-26T19:27:10.536Z,3.3
2019-05-26T19:32:09.954Z,3.3
2019-05-26T19:37:10.610Z,3.4
2019-05-26T19:42:09.958Z,3.4
2019-05-26T19:47:10.460Z,4.5
2019-05-26T19:52:09.948Z,4.5
2019-05-26T19:57:10.359Z,3.6
2019-05-26T20:02:18.444Z,3.6
2019-05-26T20:07:10.562Z,2.4
2019-05-26T20:12:10.267Z,2.4
2019-05-26T20:17:10.593Z,2.2
2019-05-26T20:22:10.057Z,2.2
2019-05-26T20:27:10.598Z,2.7
2019-05-26T20:32:10.028Z,2.7
2019-05-26T20:37:10.691Z,1.8
2019-05-26T20:42:10.180Z,1.8
2019-05-26T20:47:09.735Z,0.9
2019-05-26T20:52:10.237Z,0.9
2019-05-26T20:57:10.605Z,0.9
2019-05-26T21:02:10.254Z,0.9
2019-05-26T21:07:09.806Z,0.9
2019-05-26T21:12:10.346Z,0.9
2019-05-26T21:17:10.023Z,0.8
2019-05-26T21:22:10.520Z,0.8
2019-05-26T21:27:09.939Z,0.5
2019-05-26T21:32:10.454Z,0.5
2019-05-26T21:37:10.064Z,0.9
2019-05-26T21:42:10.586Z,0.9
2019-05-26T21:47:10.082Z,1
2019-05-26T21:52:10.522Z,1
2019-05-26T21:57:10.061Z,1.3
2019-05-26T22:02:10.125Z,1.3
2019-05-26T22:07:10.007Z,0.5
2019-05-26T22:12:10.345Z,0.5
2019-05-26T22:17:10.524Z,1.6
2019-05-26T22:22:10.343Z,1.6
2019-05-26T22:27:10.019Z,3.5
2019-05-26T22:32:09.997Z,3.5
2019-05-26T22:37:09.936Z,2.7
2019-05-26T22:42:09.848Z,2.7
2019-05-26T22:47:10.263Z,3.1
2019-05-26T22:52:10.765Z,3.1
2019-05-26T22:57:10.303Z,3
2019-05-26T23:02:10.864Z,3
2019-05-26T23:07:10.868Z,2.2
2019-05-26T23:12:10.419Z,2.2
2019-05-26T23:17:10.078Z,3.1
2019-05-26T23:22:10.455Z,3.1
2019-05-26T23:27:09.994Z,2.9
2019-05-26T23:32:10.577Z,2.9
2019-05-26T23:37:10.270Z,3.1
2019-05-26T23:42:10.777Z,3.1
2019-05-26T23:47:10.439Z,2.7
2019-05-26T23:52:10.977Z,2.7
2019-05-26T23:57:10.498Z,2.2
